Terminal Aerodrome Forecast
Issued by NWS Wichita, KS

Home | Current Version | Previous Version | Text Only | Print | Product List | Glossary On
Versions: 1 2 3 4 5 6 7 8 9 10 11 12 13 14 15 16 17 18 19 20 21 22 23 24 25 26 27 28 29 30
000
FTUS43 KICT 300522
TAFICT
TAF
KICT 300522Z 3006/3106 35014G22KT P6SM VCSH SCT030 BKN100
     FM300800 35016G23KT P6SM BKN015
      TEMPO 3008/3010 SCT015
     FM301600 36013KT P6SM BKN025
     FM301900 36011KT P6SM SCT035
     FM310000 01006KT P6SM SKC=

USA.gov is the U.S. government's official web portal to all federal, state and local government web resources and services.